Jackson Hole Airport

KJAC · 怀俄明州, 美国

罗盘
风向 的 风向 350° Jackson Hole Airport 1/19
风: 4 kt, 2 beaufort

3 kt

2 kt
改变
0 ft 1.000 2.000 3.000 4.000 5.000
没有云
METAR KJAC 150856Z AUTO 35004KT 10SM CLR 03/M02 A2984 RMK AO2 SLP079 T00281022 58012

METAR Jackson Hole Airport - KJAC/JAC

Jackson Hole Airport是,美国中的中型机场。 该机场位于纬度43,60733和经度-110,73775。 该机场有一条跑道: 1/19. 本场的ICAO机场代码为KJAC。 该机场的本地机场标识(FAA LID)为JAC。 该机场的IATA代码为JAC。 机场在Salt Lake FIR中。

该航空气象观测是针对Jackson Hole Airport在2024年4月15日 02:56, 当地时间进行的。

机场观察

风向为350°,速度为4 kt。

可见度为10 mi。

有没有云。 没有观察到天花板。

温度为3 °C,阵风为-1 °C。 露点为-2 °C,相对湿度为70%。 海平面上的气压为29,84 inHg (QNH)。

白天

今天,太阳从06:38升起,在20:06降落。 这适用于Jackson Hole Airport,世界夏令时可能有所不同。 当地时间与世界标准时间之间的时差为-6 小时。 夏令时目前正在进行中。

公司介绍

我们没有关于这个机场的公司信息。

体会

到Vliegles.nl去找飞行课程,跳伞和其他飞行体验。 浏览页面,了解Jackson Hole Airport附近所有可用的活动。 你也可以使用搜索功能来寻找你所在地附近的特定飞行课程、跳伞或其他飞行体验。

跑道

Id 标题 侧风 逆风 侧风 %
1/19 020°-200° 2 kt 3 kt 50 %

逆风成分最大的方向会被突出显示,并用于横风计算。 这并不一定意味着这个方向在使用。

乌云

- CLR 没有云

温度 & 天气

温度 2,8 °C
露点 -2,2 °C
相对湿度 70%
风寒 -1 °C
Kp-index 0 (0-9)

评论

AO2自动气象站,可确定降水类型
SLP079海平面压力为29,76 inHg (29,76 inHg)
T00281022温度为2,8 °C (37,0 °F),露点为-2,2 °C (28,0 °F)
58012

白天

日出
06:38 (3:32)
中午
13:22
日落
20:06

小工具

你想在你的网站上有一个关于Jackson Hole Airport的当前航空天气(METAR)的小部件吗?

显示HTML代码
报告变更